Strona główna
METAR-TAF:

METAR-TAF

Lotnisko :

Schwäbisch Hall, Niemcy

Szerokość geograficzna: 49-07-06N, Długość geograficzna: 9-47-02E, wysokość: 398 m

Aktualna obserwacja pogody

Raport powstał 25 minut temu, godzina 09:20 UTC
Wiatr 8 kt od południowy zachód, zmienny między południowo-południowy zachód i zachód
Temperatura 10°C
Wilgotność 71%
Ciśnienie 1011 hPa
Widzialność 10 km lub więcej
Mało chmury na wysokości 3900 ft

METAR: EDTY 270920Z 23008KT 200V260 9999 FEW039 10/05 Q1011

czas: 10:45 (09:45 UTC)

Prognoza

Raport powstał 1 godzina i 45 minut temu, godzina 08:00 UTC
Prognoza ważna od 27 godzina 09 UTC do 27 godzina 18 UTC
Wiatr 5 kt od południowo-południowy zachód
Widzialność 10 km lub więcej
Przerywane chmury na wysokości 4000 ft
Przejściowo
od 27 godzina 09 UTC do 27 godzina 14 UTC
Wiatr 12 kt od zachodnio-południowy zachód

TAF: EDTY 270800Z 2709/2718 21005KT 9999 BKN040 TEMPO 2709/2714 24012KT

Obserwacja i prognoza pogody dla ponad 4000 lotnisk (raport METAR i TAF).

Dostępne stacje oznaczono żółtymi i czerwonymi punktami na mapie.

Najedź kursorem aby zobaczyć nazwę stacji.

Kliknij aby zobaczyć obserwacje i prognozy pogody.

Aby zmienić mapę: kliknij na zielony przycisk z czarnym krzyżykiem, aby powiększyć; na zielony przycisk z myślnikiem, aby pomniejszyć; na zielone strzałki, aby przejść do map sąsiednich.


METAR-TAF: